createdAt,value
2022-12-11T00:04:51.100Z,22.43
2022-12-11T00:14:53.474Z,22.57
2022-12-11T00:24:55.954Z,22.97
2022-12-11T00:34:58.673Z,20.87
2022-12-11T00:45:01.552Z,25.50
2022-12-11T00:55:04.156Z,27.30
2022-12-11T01:05:07.176Z,23.97
2022-12-11T01:15:10.089Z,25.63
2022-12-11T01:25:13.284Z,18.43
2022-12-11T01:35:16.227Z,21.53
2022-12-11T01:45:30.007Z,18.73
2022-12-11T01:55:34.088Z,24.03
2022-12-11T02:05:37.375Z,21.40
2022-12-11T02:15:57.409Z,16.60
2022-12-11T02:26:25.393Z,19.20
2022-12-11T02:36:31.900Z,18.63
2022-12-11T02:46:35.955Z,16.40
2022-12-11T02:56:46.095Z,21.27
2022-12-11T03:06:54.127Z,24.10
2022-12-11T03:17:05.502Z,22.43
2022-12-11T03:27:18.962Z,22.30
2022-12-11T03:37:23.364Z,25.63
2022-12-11T03:47:29.272Z,23.35
2022-12-11T03:57:36.683Z,17.60
2022-12-11T04:07:39.168Z,22.60
2022-12-11T04:18:00.114Z,26.50
2022-12-11T04:28:02.436Z,28.17
2022-12-11T04:38:05.041Z,33.07
2022-12-11T04:48:08.455Z,33.83
2022-12-11T04:58:10.936Z,29.70
2022-12-11T05:08:13.505Z,35.63
2022-12-11T05:18:16.140Z,36.50
2022-12-11T05:28:18.599Z,31.23
2022-12-11T05:38:21.236Z,27.50
2022-12-11T05:48:24.172Z,28.53
2022-12-11T05:58:26.604Z,30.97
2022-12-11T06:08:29.394Z,30.60
2022-12-11T06:18:32.041Z,28.33
2022-12-11T06:28:34.268Z,24.90
2022-12-11T06:38:37.033Z,25.50
2022-12-11T06:48:40.213Z,29.70
2022-12-11T06:58:44.348Z,26.23
2022-12-11T07:08:47.036Z,30.07
2022-12-11T07:18:51.803Z,27.77
2022-12-11T07:28:58.930Z,28.73
2022-12-11T07:39:01.996Z,29.63
2022-12-11T07:49:06.548Z,31.57
2022-12-11T07:59:08.993Z,31.42
2022-12-11T08:09:20.920Z,30.57
2022-12-11T08:19:24.257Z,33.00
2022-12-11T08:29:26.881Z,33.10
2022-12-11T08:39:30.594Z,31.37
2022-12-11T08:49:34.698Z,31.50
2022-12-11T08:59:37.396Z,31.63
2022-12-11T09:09:40.148Z,29.07
2022-12-11T09:19:43.073Z,34.57
2022-12-11T09:29:45.807Z,26.03
2022-12-11T09:39:49.000Z,58.00
2022-12-11T09:50:13.391Z,33.63
2022-12-11T10:00:40.095Z,36.33
2022-12-11T10:10:49.959Z,28.97
2022-12-11T10:20:54.860Z,27.37
2022-12-11T10:31:12.436Z,26.05
2022-12-11T10:41:20.131Z,26.37
2022-12-11T10:51:40.934Z,27.33
2022-12-11T11:01:47.962Z,25.33
2022-12-11T11:11:51.129Z,19.40
2022-12-11T11:22:03.411Z,20.10
2022-12-11T11:32:23.128Z,19.43
2022-12-11T11:42:38.533Z,20.30
2022-12-11T12:02:57.860Z,20.37
2022-12-11T12:13:23.883Z,18.67
2022-12-11T12:23:56.964Z,17.00
2022-12-11T12:34:10.621Z,20.03
2022-12-11T12:44:19.056Z,20.10
2022-12-11T12:54:22.667Z,17.20
2022-12-11T13:04:54.549Z,17.47
2022-12-11T13:14:58.370Z,20.93
2022-12-11T13:25:05.178Z,20.80
2022-12-11T13:35:15.839Z,25.53
2022-12-11T13:45:23.495Z,20.23
2022-12-11T13:55:32.609Z,19.77
2022-12-11T14:05:36.483Z,19.30
2022-12-11T14:15:45.029Z,24.83
2022-12-11T14:26:01.705Z,24.13
2022-12-11T14:36:05.615Z,20.90
2022-12-11T14:46:22.560Z,23.27
2022-12-11T14:56:28.157Z,24.67
2022-12-11T15:06:36.803Z,22.10
2022-12-11T15:16:42.086Z,24.50
2022-12-11T15:26:49.278Z,22.80
2022-12-11T15:36:51.712Z,28.37
2022-12-11T15:46:53.963Z,26.53
2022-12-11T15:56:56.584Z,29.63
2022-12-11T16:06:59.113Z,30.30
2022-12-11T16:17:01.477Z,31.47
2022-12-11T16:27:04.990Z,32.70
2022-12-11T16:37:08.962Z,44.27
2022-12-11T16:47:11.432Z,31.03
2022-12-11T16:57:13.795Z,25.00
2022-12-11T17:07:16.361Z,24.47
2022-12-11T17:17:18.659Z,22.27
2022-12-11T17:27:21.004Z,24.57
2022-12-11T17:37:23.353Z,26.60
2022-12-11T17:47:25.705Z,27.83
2022-12-11T17:57:28.081Z,32.20
2022-12-11T18:07:30.404Z,26.40
2022-12-11T18:17:32.781Z,27.30
2022-12-11T18:27:35.107Z,33.17
2022-12-11T18:37:38.016Z,34.43
2022-12-11T18:47:40.417Z,41.73
2022-12-11T18:57:43.216Z,29.47
2022-12-11T19:07:45.781Z,33.53
2022-12-11T19:17:48.160Z,30.87
2022-12-11T19:27:52.012Z,33.93
2022-12-11T19:37:56.711Z,35.33
2022-12-11T19:58:01.862Z,40.90
2022-12-11T20:08:35.291Z,34.60
2022-12-11T20:18:28.308Z,30.73
2022-12-11T20:28:31.570Z,31.37
2022-12-11T20:38:35.211Z,35.33
2022-12-11T20:48:39.655Z,26.10
2022-12-11T20:58:42.538Z,27.77
2022-12-11T21:08:45.212Z,25.80
2022-12-11T21:18:49.178Z,30.90
2022-12-11T21:28:53.219Z,28.02
2022-12-11T21:38:56.178Z,28.57
2022-12-11T21:48:59.184Z,30.97
2022-12-11T21:59:02.610Z,27.20
2022-12-11T22:09:06.282Z,31.37
2022-12-11T22:19:08.718Z,29.07
2022-12-11T22:29:11.494Z,34.00
2022-12-11T22:39:14.187Z,33.50
2022-12-11T22:49:17.273Z,34.90
2022-12-11T22:59:19.692Z,36.50
2022-12-11T23:09:22.103Z,35.83
2022-12-11T23:19:25.748Z,40.20
2022-12-11T23:29:28.475Z,36.40
2022-12-11T23:39:30.984Z,34.37
2022-12-11T23:49:33.381Z,33.00
2022-12-11T23:59:36.967Z,28.30
